createdAt,value
2017-06-03T00:01:42.497Z,4.23
2017-06-03T00:04:09.175Z,4.40
2017-06-03T00:06:35.870Z,4.70
2017-06-03T00:09:02.523Z,3.90
2017-06-03T00:11:29.196Z,4.93
2017-06-03T00:13:55.873Z,4.10
2017-06-03T00:16:22.529Z,3.70
2017-06-03T00:18:49.395Z,3.73
2017-06-03T00:21:16.047Z,3.30
2017-06-03T00:23:42.716Z,3.33
2017-06-03T00:26:09.395Z,3.03
2017-06-03T00:28:36.045Z,4.10
2017-06-03T00:31:02.704Z,3.93
2017-06-03T00:33:29.399Z,3.67
2017-06-03T00:35:56.059Z,3.30
2017-06-03T00:38:22.720Z,4.73
2017-06-03T00:40:49.419Z,4.50
2017-06-03T00:43:16.079Z,5.00
2017-06-03T00:45:42.735Z,4.60
2017-06-03T00:48:09.411Z,4.73
2017-06-03T00:50:36.061Z,4.90
2017-06-03T00:53:02.754Z,5.43
2017-06-03T00:55:29.440Z,4.90
2017-06-03T00:57:56.093Z,3.70
2017-06-03T01:00:22.749Z,3.87
2017-06-03T01:02:49.423Z,4.27
2017-06-03T01:05:16.096Z,5.03
2017-06-03T01:07:42.766Z,5.90
2017-06-03T01:10:09.524Z,4.23
2017-06-03T01:12:36.181Z,4.10
2017-06-03T01:15:03.040Z,4.17
2017-06-03T01:17:29.969Z,5.43
2017-06-03T01:19:56.623Z,4.80
2017-06-03T01:22:23.286Z,4.67
2017-06-03T01:24:49.973Z,5.00
2017-06-03T01:27:16.642Z,6.23
2017-06-03T01:29:43.292Z,4.63
2017-06-03T01:32:09.979Z,4.30
2017-06-03T01:34:36.668Z,4.70
2017-06-03T01:37:03.322Z,4.33
2017-06-03T01:39:29.991Z,4.30
2017-06-03T01:41:56.655Z,4.20
2017-06-03T01:44:23.320Z,4.90
2017-06-03T01:46:50.003Z,5.13
2017-06-03T01:49:16.659Z,5.47
2017-06-03T01:51:43.328Z,5.80
2017-06-03T01:54:10.013Z,5.30
2017-06-03T01:56:36.672Z,5.60
2017-06-03T01:59:03.340Z,6.80
2017-06-03T02:01:30.026Z,6.97
2017-06-03T02:03:56.766Z,8.50
2017-06-03T02:06:23.431Z,7.83
2017-06-03T02:08:50.132Z,8.43
2017-06-03T02:11:16.793Z,8.17
2017-06-03T02:13:43.443Z,7.80
2017-06-03T02:16:10.148Z,6.90
2017-06-03T02:18:36.798Z,7.07
2017-06-03T02:21:03.453Z,6.30
2017-06-03T02:23:30.415Z,5.57
2017-06-03T02:25:57.076Z,7.63
2017-06-03T02:28:23.728Z,7.27
2017-06-03T02:30:50.415Z,6.23
2017-06-03T02:33:17.069Z,5.47
2017-06-03T02:35:43.736Z,5.43
2017-06-03T02:38:10.427Z,7.17
2017-06-03T02:40:37.113Z,5.67
2017-06-03T02:43:03.776Z,6.70
2017-06-03T02:45:30.460Z,6.70
2017-06-03T02:47:57.144Z,6.03
2017-06-03T02:50:23.797Z,6.43
2017-06-03T02:52:50.491Z,6.67
2017-06-03T02:55:17.152Z,7.47
2017-06-03T02:57:43.810Z,7.40
2017-06-03T03:00:10.805Z,6.70
2017-06-03T03:02:37.464Z,7.90
2017-06-03T03:05:04.120Z,8.13
2017-06-03T03:07:30.899Z,8.33
2017-06-03T03:09:57.551Z,8.37
2017-06-03T03:12:24.226Z,6.83
2017-06-03T03:14:50.993Z,7.27
2017-06-03T03:17:17.657Z,8.60
2017-06-03T03:19:44.312Z,7.40
2017-06-03T03:22:11.003Z,8.47
2017-06-03T03:24:37.653Z,7.53
2017-06-03T03:27:04.311Z,7.53
2017-06-03T03:29:31.002Z,8.47
2017-06-03T03:31:57.652Z,6.90
2017-06-03T03:34:24.302Z,7.40
2017-06-03T03:36:50.986Z,6.43
2017-06-03T03:39:17.647Z,7.80
2017-06-03T03:41:44.311Z,8.30
2017-06-03T03:44:10.997Z,8.80
2017-06-03T03:46:37.764Z,10.70
2017-06-03T03:49:04.424Z,8.27
2017-06-03T03:51:31.099Z,9.47
2017-06-03T03:53:57.759Z,7.40
2017-06-03T03:56:24.421Z,7.50
2017-06-03T03:58:51.089Z,8.07
2017-06-03T04:01:17.751Z,8.60
2017-06-03T04:03:44.411Z,7.90
2017-06-03T04:06:11.102Z,8.57
2017-06-03T04:08:37.752Z,8.87
2017-06-03T04:11:04.405Z,8.10
2017-06-03T04:13:31.180Z,8.47
2017-06-03T04:15:57.879Z,7.80
2017-06-03T04:18:24.536Z,8.27
2017-06-03T04:20:51.227Z,7.50
2017-06-03T04:23:17.908Z,7.90
2017-06-03T04:25:44.602Z,7.70
2017-06-03T04:28:11.249Z,8.60
2017-06-03T04:30:37.935Z,8.73
2017-06-03T04:33:04.608Z,7.97
2017-06-03T04:35:31.284Z,7.03
2017-06-03T04:37:57.964Z,6.90
2017-06-03T04:40:24.831Z,6.80
2017-06-03T04:42:51.490Z,8.47
2017-06-03T04:45:18.146Z,8.40
2017-06-03T04:47:44.820Z,8.50
2017-06-03T04:50:11.477Z,6.87
2017-06-03T04:52:38.132Z,7.47
2017-06-03T04:55:04.816Z,7.30
2017-06-03T04:57:31.483Z,7.33
2017-06-03T04:59:58.126Z,8.60
2017-06-03T05:02:24.810Z,5.47
2017-06-03T05:04:51.459Z,7.43
2017-06-03T05:07:18.145Z,7.30
2017-06-03T05:09:44.831Z,8.13
2017-06-03T05:12:11.484Z,7.67
2017-06-03T05:14:38.155Z,7.27
2017-06-03T05:17:04.862Z,7.33
2017-06-03T05:19:31.543Z,8.10
2017-06-03T05:21:58.204Z,7.13
2017-06-03T05:24:24.874Z,7.40
2017-06-03T05:26:51.526Z,8.43
2017-06-03T05:29:18.192Z,8.53
2017-06-03T05:31:44.864Z,8.10
2017-06-03T05:34:11.529Z,7.87
2017-06-03T05:36:38.214Z,9.03
2017-06-03T05:39:04.888Z,9.47
2017-06-03T05:41:31.547Z,9.43
2017-06-03T05:43:58.253Z,10.10
2017-06-03T05:46:25.020Z,9.77
2017-06-03T05:48:51.705Z,9.57
2017-06-03T05:51:18.403Z,10.40
2017-06-03T05:53:45.075Z,8.27
2017-06-03T05:56:11.734Z,9.73
2017-06-03T05:58:38.411Z,9.17
2017-06-03T06:01:05.075Z,9.77
2017-06-03T06:03:31.748Z,9.50
2017-06-03T06:05:58.452Z,10.30
2017-06-03T06:08:25.115Z,11.10
2017-06-03T06:10:51.789Z,10.57
2017-06-03T06:13:18.479Z,10.50
2017-06-03T06:15:45.136Z,10.30
2017-06-03T06:18:11.800Z,8.90
2017-06-03T06:20:38.483Z,8.97
2017-06-03T06:23:05.147Z,9.20
2017-06-03T06:25:31.803Z,8.13
2017-06-03T06:27:58.699Z,7.70
2017-06-03T06:30:25.371Z,7.17
2017-06-03T06:32:52.035Z,7.40
2017-06-03T06:35:18.691Z,8.30
2017-06-03T06:37:45.338Z,8.27
2017-06-03T06:40:12.070Z,8.10
2017-06-03T06:42:38.767Z,8.40
2017-06-03T06:45:05.420Z,8.50
2017-06-03T06:47:32.104Z,8.33
2017-06-03T06:49:58.779Z,9.47
2017-06-03T06:52:25.448Z,8.77
2017-06-03T06:54:52.108Z,8.27
2017-06-03T06:57:18.808Z,7.77
2017-06-03T06:59:45.461Z,6.90
2017-06-03T07:02:12.141Z,7.40
2017-06-03T07:04:38.813Z,7.37
2017-06-03T07:07:05.475Z,7.20
2017-06-03T07:09:32.221Z,8.20
2017-06-03T07:11:58.881Z,7.40
2017-06-03T07:14:25.540Z,7.60
2017-06-03T07:16:52.237Z,7.00
2017-06-03T07:19:18.909Z,6.87
2017-06-03T07:21:45.600Z,8.03
2017-06-03T07:24:12.505Z,7.07
2017-06-03T07:26:39.189Z,7.77
2017-06-03T07:29:05.872Z,7.20
2017-06-03T07:31:32.581Z,6.90
2017-06-03T07:33:59.401Z,6.60
2017-06-03T07:36:26.071Z,7.03
2017-06-03T07:38:53.042Z,7.00
2017-06-03T07:41:19.824Z,8.40
2017-06-03T07:43:46.511Z,7.77
2017-06-03T07:46:13.217Z,8.67
2017-06-03T07:48:39.904Z,10.63
2017-06-03T07:51:06.595Z,8.43
2017-06-03T07:53:33.585Z,8.80
2017-06-03T07:56:00.278Z,8.00
2017-06-03T07:58:27.156Z,8.93
2017-06-03T08:00:54.220Z,10.77
2017-06-03T08:03:20.916Z,7.20
2017-06-03T08:05:47.689Z,8.53
2017-06-03T08:08:14.388Z,8.00
2017-06-03T08:10:41.124Z,8.20
2017-06-03T08:13:07.909Z,11.03
2017-06-03T08:15:34.597Z,9.50
2017-06-03T08:18:01.499Z,11.63
2017-06-03T08:20:28.186Z,10.20
2017-06-03T08:22:54.870Z,9.50
2017-06-03T08:25:22.033Z,11.33
2017-06-03T08:27:48.724Z,12.13
2017-06-03T08:30:15.419Z,9.33
2017-06-03T08:32:42.104Z,9.80
2017-06-03T08:35:08.791Z,12.40
2017-06-03T08:37:35.479Z,8.93
2017-06-03T08:40:02.190Z,10.47
2017-06-03T08:42:28.876Z,9.97
2017-06-03T08:44:55.575Z,9.33
2017-06-03T08:47:22.262Z,12.90
2017-06-03T08:49:48.980Z,11.30
2017-06-03T08:52:15.679Z,11.30
2017-06-03T08:54:42.713Z,11.47
2017-06-03T08:57:09.403Z,12.40
2017-06-03T08:59:36.147Z,12.33
2017-06-03T09:02:02.940Z,12.87
2017-06-03T09:04:29.625Z,11.90
2017-06-03T09:06:56.312Z,10.60
2017-06-03T09:09:23.132Z,11.87
2017-06-03T09:11:50.032Z,12.30
2017-06-03T09:14:16.715Z,13.87
2017-06-03T09:16:43.427Z,11.90
2017-06-03T09:19:10.123Z,11.53
2017-06-03T09:21:36.839Z,12.47
2017-06-03T09:24:03.901Z,12.40
2017-06-03T09:26:30.584Z,12.67
2017-06-03T09:28:57.332Z,11.40
2017-06-03T09:31:24.048Z,11.60
2017-06-03T09:33:50.765Z,12.23
2017-06-03T09:36:17.622Z,14.47
2017-06-03T09:38:44.318Z,13.90
2017-06-03T09:41:11.032Z,12.90
2017-06-03T09:43:37.749Z,12.40
2017-06-03T09:46:04.451Z,14.17
2017-06-03T09:48:31.152Z,13.13
2017-06-03T09:50:57.972Z,14.37
2017-06-03T09:53:24.676Z,12.80
2017-06-03T09:55:51.469Z,12.70
2017-06-03T09:58:18.175Z,11.83
2017-06-03T10:00:44.877Z,11.07
2017-06-03T10:03:11.569Z,11.00
2017-06-03T10:05:38.289Z,11.97
2017-06-03T10:08:04.953Z,11.60
2017-06-03T10:10:31.661Z,11.93
2017-06-03T10:12:58.352Z,11.43
2017-06-03T10:15:25.101Z,12.80
2017-06-03T10:17:51.785Z,13.00
2017-06-03T10:20:18.561Z,10.30
2017-06-03T10:22:45.248Z,10.37
2017-06-03T10:25:11.957Z,11.20
2017-06-03T10:27:38.632Z,9.80
2017-06-03T10:30:05.329Z,10.27
2017-06-03T10:32:32.122Z,11.00
2017-06-03T10:34:58.815Z,10.47
2017-06-03T10:37:25.510Z,9.70
2017-06-03T10:39:52.189Z,8.97
2017-06-03T10:42:18.871Z,9.33
2017-06-03T10:44:45.539Z,8.83
2017-06-03T10:47:12.375Z,9.10
2017-06-03T10:49:39.060Z,8.60
2017-06-03T10:52:05.733Z,9.10
2017-06-03T10:54:32.469Z,8.60
2017-06-03T10:56:59.155Z,8.97
2017-06-03T10:59:25.836Z,6.90
2017-06-03T11:01:52.640Z,6.90
2017-06-03T11:04:19.319Z,6.70
2017-06-03T11:06:46.117Z,6.00
2017-06-03T11:09:12.791Z,7.27
2017-06-03T11:11:39.490Z,7.63
2017-06-03T11:14:06.314Z,7.00
2017-06-03T11:16:33.000Z,7.23
2017-06-03T11:18:59.719Z,6.50
2017-06-03T11:21:26.410Z,7.53
2017-06-03T11:23:53.104Z,6.50
2017-06-03T11:26:19.783Z,7.70
2017-06-03T11:28:46.475Z,6.53
2017-06-03T11:31:13.203Z,6.77
2017-06-03T11:33:39.898Z,5.17
2017-06-03T11:36:06.613Z,5.80
2017-06-03T11:38:33.321Z,5.40
2017-06-03T11:41:00.008Z,4.93
2017-06-03T11:43:26.711Z,5.33
2017-06-03T11:45:53.389Z,4.97
2017-06-03T11:48:20.121Z,4.87
2017-06-03T11:50:46.828Z,5.40
2017-06-03T11:53:13.519Z,5.20
2017-06-03T11:55:40.304Z,4.40
2017-06-03T11:58:06.992Z,4.40
2017-06-03T12:00:33.667Z,4.70
2017-06-03T12:03:00.352Z,4.47
2017-06-03T12:05:27.059Z,4.47
2017-06-03T12:07:53.753Z,3.63
2017-06-03T12:10:20.444Z,3.73
2017-06-03T12:12:47.128Z,3.83
2017-06-03T12:15:13.801Z,3.77
2017-06-03T12:17:40.480Z,4.17
2017-06-03T12:20:07.203Z,3.80
2017-06-03T12:22:33.888Z,4.13
2017-06-03T12:25:00.565Z,3.50
2017-06-03T12:27:27.292Z,4.00
2017-06-03T12:29:54.498Z,4.00
2017-06-03T12:32:21.217Z,4.00
2017-06-03T12:34:47.896Z,3.78
2017-06-03T12:37:14.599Z,3.80
2017-06-03T12:39:41.319Z,4.10
2017-06-03T12:42:08.092Z,3.83
2017-06-03T12:44:34.801Z,3.40
2017-06-03T12:47:01.481Z,3.80
2017-06-03T12:49:28.198Z,3.80
2017-06-03T12:51:54.920Z,3.90
2017-06-03T12:54:21.809Z,4.00
2017-06-03T12:56:48.500Z,4.13
2017-06-03T12:59:15.188Z,4.20
2017-06-03T13:01:42.243Z,3.83
2017-06-03T13:04:09.011Z,3.37
2017-06-03T13:06:35.785Z,4.03
2017-06-03T13:09:02.620Z,3.80
2017-06-03T13:11:29.321Z,3.63
2017-06-03T13:13:56.092Z,3.77
2017-06-03T13:16:22.793Z,4.00
2017-06-03T13:18:49.485Z,4.30
2017-06-03T13:21:16.173Z,4.70
2017-06-03T13:23:42.857Z,4.77
2017-06-03T13:26:09.715Z,5.60
2017-06-03T13:28:36.455Z,5.90
2017-06-03T13:31:03.179Z,6.00
2017-06-03T13:33:29.939Z,5.40
2017-06-03T13:35:56.649Z,6.10
2017-06-03T13:38:23.324Z,5.90
2017-06-03T13:40:50.037Z,6.27
2017-06-03T13:43:16.931Z,6.10
2017-06-03T13:45:43.614Z,6.50
2017-06-03T13:48:10.292Z,6.10
2017-06-03T13:50:36.991Z,6.83
2017-06-03T13:53:03.737Z,6.50
2017-06-03T13:55:30.425Z,7.20
2017-06-03T13:57:57.115Z,6.53
2017-06-03T14:02:59.833Z,5.90
2017-06-03T14:05:26.547Z,5.90
2017-06-03T14:07:53.235Z,6.40
2017-06-03T14:10:19.923Z,5.93
2017-06-03T14:12:46.614Z,6.13
2017-06-03T14:15:13.305Z,6.73
2017-06-03T14:17:39.989Z,7.43
2017-06-03T14:20:06.779Z,7.00
2017-06-03T14:22:33.475Z,7.40
2017-06-03T14:25:00.164Z,7.07
2017-06-03T14:27:26.858Z,7.30
2017-06-03T14:29:53.538Z,7.30
2017-06-03T14:32:20.292Z,7.40
2017-06-03T14:34:46.980Z,6.80
2017-06-03T14:37:13.656Z,7.00
2017-06-03T14:39:40.396Z,7.30
2017-06-03T14:42:07.080Z,7.03
2017-06-03T14:44:33.780Z,7.73
2017-06-03T14:47:00.459Z,7.40
2017-06-03T14:49:27.159Z,6.70
2017-06-03T14:51:53.885Z,7.70
2017-06-03T14:54:20.580Z,7.17
2017-06-03T14:56:47.267Z,7.33
2017-06-03T14:59:13.956Z,6.70
2017-06-03T15:01:40.641Z,6.50
2017-06-03T15:04:07.319Z,6.57
2017-06-03T15:06:34.128Z,6.27
2017-06-03T15:09:00.796Z,5.83
2017-06-03T15:11:27.536Z,5.70
2017-06-03T15:13:54.272Z,6.10
2017-06-03T15:16:20.980Z,6.40
2017-06-03T15:18:47.886Z,5.47
2017-06-03T15:21:14.661Z,4.90
2017-06-03T15:23:41.400Z,5.03
2017-06-03T15:26:08.087Z,5.00
2017-06-03T15:28:34.796Z,4.90
2017-06-03T15:31:01.606Z,5.00
2017-06-03T15:33:28.275Z,5.57
2017-06-03T15:35:54.948Z,5.10
2017-06-03T15:38:21.675Z,5.53
2017-06-03T15:40:48.528Z,5.47
2017-06-03T15:43:15.227Z,4.70
2017-06-03T15:45:41.976Z,4.73
2017-06-03T15:48:08.752Z,4.57
2017-06-03T15:50:35.452Z,4.70
2017-06-03T15:53:02.142Z,4.80
2017-06-03T15:55:28.845Z,4.37
2017-06-03T15:57:55.507Z,4.00
2017-06-03T16:00:22.207Z,4.30
2017-06-03T16:02:48.909Z,4.20
2017-06-03T16:05:15.593Z,3.97
2017-06-03T16:07:42.278Z,4.70
2017-06-03T16:10:08.976Z,3.93
2017-06-03T16:12:35.650Z,4.40
2017-06-03T16:15:02.358Z,3.80
2017-06-03T16:17:29.098Z,3.47
2017-06-03T16:19:55.869Z,3.20
2017-06-03T16:22:22.561Z,3.27
2017-06-03T16:24:49.256Z,3.87
2017-06-03T16:27:16.047Z,3.73
2017-06-03T16:29:42.744Z,4.00
2017-06-03T16:32:09.521Z,3.77
2017-06-03T16:34:36.416Z,3.90
2017-06-03T16:37:03.097Z,3.80
2017-06-03T16:39:29.771Z,3.43
2017-06-03T16:41:56.587Z,3.63
2017-06-03T16:44:23.256Z,3.60
2017-06-03T16:46:49.982Z,2.90
2017-06-03T16:49:16.675Z,3.80
2017-06-03T16:51:43.391Z,3.90
2017-06-03T16:54:10.082Z,4.10
2017-06-03T16:56:36.771Z,3.80
2017-06-03T16:59:03.486Z,4.20
2017-06-03T17:01:30.211Z,5.60
2017-06-03T17:03:57.043Z,3.80
2017-06-03T17:06:23.736Z,3.83
2017-06-03T17:08:50.424Z,4.10
2017-06-03T17:11:17.231Z,4.10
2017-06-03T17:13:43.904Z,5.07
2017-06-03T17:16:10.571Z,4.87
2017-06-03T17:18:37.272Z,5.27
2017-06-03T17:21:04.177Z,4.90
2017-06-03T17:23:30.863Z,5.00
2017-06-03T17:25:57.548Z,5.60
2017-06-03T17:28:24.231Z,5.50
2017-06-03T17:30:50.912Z,5.00
2017-06-03T17:33:17.624Z,6.03
2017-06-03T17:35:44.280Z,6.03
2017-06-03T17:38:12.015Z,5.60
2017-06-03T17:40:38.695Z,6.50
2017-06-03T17:43:05.365Z,6.03
2017-06-03T17:45:32.019Z,5.80
2017-06-03T17:47:58.700Z,6.20
2017-06-03T17:50:25.351Z,6.20
2017-06-03T17:52:52.027Z,6.10
2017-06-03T17:55:18.746Z,7.13
2017-06-03T17:57:45.399Z,5.97
2017-06-03T18:00:12.062Z,6.03
2017-06-03T18:02:38.741Z,6.37
2017-06-03T18:05:05.400Z,6.63
2017-06-03T18:07:32.056Z,6.47
2017-06-03T18:09:58.742Z,6.60
2017-06-03T18:12:25.397Z,6.60
2017-06-03T18:14:52.078Z,7.20
2017-06-03T18:17:18.744Z,6.47
2017-06-03T18:19:45.408Z,6.90
2017-06-03T18:22:17.793Z,8.00
2017-06-03T18:24:44.480Z,6.90
2017-06-03T18:27:11.137Z,7.20
2017-06-03T18:29:37.790Z,6.80
2017-06-03T18:32:04.504Z,6.63
2017-06-03T18:34:31.161Z,7.10
2017-06-03T18:36:57.816Z,7.57
2017-06-03T18:39:24.519Z,7.40
2017-06-03T18:41:51.181Z,6.83
2017-06-03T18:44:17.832Z,7.80
2017-06-03T18:46:44.548Z,7.20
2017-06-03T18:49:11.205Z,8.17
2017-06-03T18:51:37.966Z,8.60
2017-06-03T18:54:04.668Z,6.67
2017-06-03T18:56:31.324Z,7.40
2017-06-03T18:58:58.123Z,7.03
2017-06-03T19:01:24.777Z,7.23
2017-06-03T19:03:51.488Z,7.37
2017-06-03T19:06:18.164Z,6.60
2017-06-03T19:08:44.815Z,7.43
2017-06-03T19:11:11.501Z,7.50
2017-06-03T19:13:38.155Z,7.10
2017-06-03T19:16:04.804Z,6.63
2017-06-03T19:18:31.489Z,6.63
2017-06-03T19:20:58.156Z,6.00
2017-06-03T19:23:24.813Z,7.20
2017-06-03T19:25:51.493Z,6.80
2017-06-03T19:28:18.171Z,7.13
2017-06-03T19:30:44.822Z,6.90
2017-06-03T19:33:11.500Z,7.40
2017-06-03T19:35:38.154Z,7.67
2017-06-03T19:38:04.826Z,7.83
2017-06-03T19:40:31.516Z,6.87
2017-06-03T19:42:58.171Z,6.90
2017-06-03T19:45:24.835Z,8.07
2017-06-03T19:47:51.530Z,7.43
2017-06-03T19:50:18.189Z,8.07
2017-06-03T19:52:44.861Z,8.07
2017-06-03T19:55:11.551Z,7.50
2017-06-03T19:57:38.209Z,7.47
2017-06-03T20:00:04.873Z,7.63
2017-06-03T20:02:31.743Z,10.33
2017-06-03T20:04:58.396Z,9.90
2017-06-03T20:07:25.083Z,7.60
2017-06-03T20:09:51.779Z,7.83
2017-06-03T20:12:18.433Z,7.40
2017-06-03T20:14:45.108Z,7.30
2017-06-03T20:17:11.796Z,8.27
2017-06-03T20:19:38.447Z,9.10
2017-06-03T20:22:05.119Z,9.13
2017-06-03T20:24:31.837Z,9.23
2017-06-03T20:26:58.505Z,8.70
2017-06-03T20:29:25.170Z,8.37
2017-06-03T20:31:51.947Z,7.53
2017-06-03T20:34:18.617Z,7.70
2017-06-03T20:36:45.279Z,8.40
2017-06-03T20:39:11.956Z,7.90
2017-06-03T20:41:38.640Z,8.60
2017-06-03T20:44:05.484Z,8.40
2017-06-03T20:46:32.176Z,7.47
2017-06-03T20:48:58.857Z,7.40
2017-06-03T20:51:25.507Z,8.43
2017-06-03T20:53:52.491Z,7.53
2017-06-03T20:56:19.179Z,8.10
2017-06-03T20:58:45.839Z,8.23
2017-06-03T21:01:12.921Z,8.73
2017-06-03T21:03:39.579Z,8.60
2017-06-03T21:06:06.249Z,8.53
2017-06-03T21:08:32.970Z,8.40
2017-06-03T21:10:59.637Z,10.03
2017-06-03T21:13:26.299Z,10.00
2017-06-03T21:15:52.968Z,8.87
2017-06-03T21:18:19.633Z,9.27
2017-06-03T21:20:46.295Z,8.67
2017-06-03T21:23:12.967Z,9.00
2017-06-03T21:25:39.621Z,9.57
2017-06-03T21:28:06.291Z,9.50
2017-06-03T21:30:33.004Z,10.13
2017-06-03T21:32:59.680Z,10.70
2017-06-03T21:35:26.342Z,10.23
2017-06-03T21:37:53.328Z,10.10
2017-06-03T21:40:20.000Z,10.33
2017-06-03T21:42:46.681Z,9.97
2017-06-03T21:45:13.406Z,10.60
2017-06-03T21:47:40.067Z,10.83
2017-06-03T21:50:06.797Z,10.80
2017-06-03T21:52:33.485Z,12.10
2017-06-03T21:55:00.160Z,10.67
2017-06-03T21:57:26.942Z,10.63
2017-06-03T21:59:53.681Z,10.80
2017-06-03T22:02:20.355Z,10.37
2017-06-03T22:04:47.042Z,11.03
2017-06-03T22:07:13.752Z,10.70
2017-06-03T22:09:40.433Z,11.20
2017-06-03T22:12:07.104Z,12.20
2017-06-03T22:14:33.789Z,10.77
2017-06-03T22:17:00.453Z,10.63
2017-06-03T22:19:27.119Z,11.20
2017-06-03T22:21:53.797Z,11.63
2017-06-03T22:24:20.453Z,11.37
2017-06-03T22:26:47.114Z,11.27
2017-06-03T22:29:13.836Z,11.20
2017-06-03T22:31:40.524Z,11.50
2017-06-03T22:34:07.188Z,11.30
2017-06-03T22:36:33.889Z,12.23
2017-06-03T22:39:00.556Z,12.17
2017-06-03T22:41:27.218Z,11.60
2017-06-03T22:43:54.001Z,11.80
2017-06-03T22:46:20.660Z,10.40
2017-06-03T22:48:47.327Z,10.73
2017-06-03T22:51:14.018Z,12.48
2017-06-03T22:53:40.683Z,11.87
2017-06-03T22:56:07.349Z,11.90
2017-06-03T22:58:34.076Z,11.50
2017-06-03T23:01:00.740Z,11.50
2017-06-03T23:03:27.421Z,11.67
2017-06-03T23:05:54.443Z,11.73
2017-06-03T23:08:21.109Z,11.97
2017-06-03T23:10:47.767Z,10.23
2017-06-03T23:13:14.516Z,10.93
2017-06-03T23:15:41.186Z,10.50
2017-06-03T23:18:07.868Z,10.07
2017-06-03T23:20:34.545Z,10.03
2017-06-03T23:23:01.203Z,12.17
2017-06-03T23:25:27.880Z,10.80
2017-06-03T23:27:54.588Z,10.30
2017-06-03T23:30:21.255Z,10.20
2017-06-03T23:32:47.924Z,10.63
2017-06-03T23:35:14.817Z,9.20
2017-06-03T23:37:41.473Z,9.20
2017-06-03T23:40:08.135Z,10.60
2017-06-03T23:42:34.833Z,11.43
2017-06-03T23:45:01.503Z,12.07
2017-06-03T23:47:28.180Z,12.53
2017-06-03T23:49:54.904Z,13.53
2017-06-03T23:52:21.563Z,12.40
2017-06-03T23:54:48.253Z,11.90
2017-06-03T23:57:14.945Z,12.80
2017-06-03T23:59:41.629Z,12.87
